Terminal Aerodrome Forecast
Issued by NWS

Home | Current Version | Previous Version | Graphics & Text | Print | Product List | Glossary On
Versions: 1 2 3 4 5 6 7 8 9 10 11 12 13 14 15 16 17 18 19 20 21 22 23 24 25 26 27 28
773
FTUS43 KLOT 060920 AAA
TAFORD
TAF AMD
KORD 060920Z 0609/0712 12005KT 4SM BR FEW008 BKN250
     FM061200 VRB03KT 6SM BR FEW009 BKN250
     FM061800 27010KT P6SM SCT009 BKN020
     FM062200 27012G18KT P6SM SCT030=

USA.gov is the U.S. government's official web portal to all federal, state and local government web resources and services.